Time;durP1;ratioP1;P1;durP2;ratioP2;P2;SDS_P1;SDS_P2;PMS_P1;PMS_P2;Temp;Humidity;BMP_temperature;BMP_pressure;BME280_temperature;BME280_humidity;BME280_pressure;Samples;Min_cycle;Max_cycle;Signal;HPM_P1;HPM_P2
2022/11/13 00:02:16;;;;;;;18.20;16.60;;;3.60;99.90;;;;;;4980081;28;20614;-85
2022/11/13 00:04:42;;;;;;;21.30;19.37;;;3.90;99.90;;;;;;4981316;28;20634;-85
2022/11/13 00:07:09;;;;;;;26.53;20.40;;;4.10;99.90;;;;;;4977071;28;20632;-85
2022/11/13 00:09:36;;;;;;;21.97;20.07;;;3.80;99.90;;;;;;4982776;28;20687;-85
2022/11/13 00:12:03;;;;;;;21.07;18.90;;;4.10;99.90;;;;;;4979009;28;20632;-86
2022/11/13 00:14:31;;;;;;;17.93;16.17;;;4.00;99.90;;;;;;4981972;28;20621;-85
2022/11/13 00:16:57;;;;;;;18.20;16.60;;;4.00;99.90;;;;;;4977023;28;20633;-85
2022/11/13 00:19:24;;;;;;;17.53;15.83;;;4.20;99.90;;;;;;4974750;28;20625;-85
2022/11/13 00:21:51;;;;;;;18.63;16.83;;;4.00;99.90;;;;;;4981681;28;20629;-85
2022/11/13 00:24:18;;;;;;;21.47;17.17;;;4.30;99.90;;;;;;4981823;28;20664;-84
2022/11/13 00:26:44;;;;;;;45.40;22.17;;;3.90;99.90;;;;;;4977832;28;20640;-85
2022/11/13 00:29:11;;;;;;;70.00;28.27;;;4.20;99.90;;;;;;4974733;28;20665;-85
2022/11/13 00:31:39;;;;;;;67.00;26.43;;;3.90;99.90;;;;;;4980555;28;20641;-85
2022/11/13 00:34:06;;;;;;;63.67;27.00;;;4.30;99.90;;;;;;4985207;28;20637;-85
2022/11/13 00:36:33;;;;;;;108.43;25.97;;;4.10;99.90;;;;;;4981949;28;20627;-85
2022/11/13 00:39:00;;;;;;;79.43;33.53;;;4.10;99.90;;;;;;4979192;28;20994;-85
2022/11/13 00:41:26;;;;;;;114.87;28.63;;;3.50;99.90;;;;;;4976053;28;21219;-85
2022/11/13 00:43:53;;;;;;;79.80;25.43;;;4.10;99.90;;;;;;4979038;28;20640;-85
2022/11/13 00:46:20;;;;;;;39.63;21.10;;;3.80;99.90;;;;;;4985444;28;20632;-86
2022/11/13 00:48:48;;;;;;;38.00;20.67;;;4.00;99.90;;;;;;4972156;28;20680;-85
2022/11/13 00:51:15;;;;;;;33.87;22.83;;;4.00;99.90;;;;;;4988245;28;20656;-85
2022/11/13 00:53:42;;;;;;;25.87;23.03;;;4.20;99.90;;;;;;4986758;28;20633;-85
2022/11/13 00:56:10;;;;;;;52.37;28.33;;;4.00;99.90;;;;;;4985417;28;20639;-85
2022/11/13 00:58:37;;;;;;;62.97;30.33;;;3.80;99.90;;;;;;4977507;28;20639;-85
2022/11/13 01:01:06;;;;;;;67.37;25.17;;;3.90;99.90;;;;;;4983820;28;20661;-86
2022/11/13 01:03:33;;;;;;;205.60;34.17;;;3.90;99.90;;;;;;4991846;28;20647;-85
2022/11/13 01:06:01;;;;;;;158.23;32.40;;;3.80;99.90;;;;;;4982419;28;20639;-85
2022/11/13 01:08:28;;;;;;;49.80;25.57;;;3.70;99.90;;;;;;4985643;28;20630;-85
2022/11/13 01:10:54;;;;;;;108.97;26.93;;;3.90;99.90;;;;;;4990244;28;20672;-85
2022/11/13 01:13:21;;;;;;;166.17;28.70;;;3.80;99.90;;;;;;5007318;28;20707;-85
2022/11/13 01:15:48;;;;;;;258.57;38.50;;;3.70;99.90;;;;;;5008842;28;20628;-86
2022/11/13 01:18:15;;;;;;;233.50;34.47;;;3.70;99.90;;;;;;4987954;28;20632;-85
2022/11/13 01:20:41;;;;;;;284.07;34.33;;;3.50;99.90;;;;;;4992886;28;20657;-86
2022/11/13 01:23:09;;;;;;;313.97;38.33;;;3.60;99.90;;;;;;4984531;28;20741;-85
2022/11/13 01:25:36;;;;;;;251.53;33.13;;;3.50;99.90;;;;;;4982884;28;20630;-85
2022/11/13 01:28:03;;;;;;;374.83;38.93;;;3.70;99.90;;;;;;4984989;28;20636;-85
2022/11/13 01:30:30;;;;;;;303.73;33.97;;;3.60;99.90;;;;;;4983451;28;20676;-85
2022/11/13 01:32:57;;;;;;;371.33;42.03;;;3.50;99.90;;;;;;4976885;28;21247;-84
2022/11/13 01:35:24;;;;;;;378.60;41.60;;;3.60;99.90;;;;;;4986786;28;20647;-85
2022/11/13 01:37:50;;;;;;;268.43;35.33;;;3.60;99.90;;;;;;4978986;28;20634;-84
2022/11/13 01:40:19;;;;;;;229.67;33.37;;;3.70;99.90;;;;;;4986320;28;20656;-84
2022/11/13 01:42:46;;;;;;;224.40;32.10;;;3.70;99.90;;;;;;4987251;28;20624;-85
2022/11/13 01:45:50;;;;;;;219.30;33.07;;;3.70;99.90;;;;;;4982857;28;20628;-84
2022/11/13 01:48:17;;;;;;;224.90;28.37;;;3.80;99.90;;;;;;4978519;28;20631;-85
2022/11/13 01:50:43;;;;;;;210.70;32.20;;;3.70;99.90;;;;;;4975005;28;20676;-85
2022/11/13 01:53:10;;;;;;;128.93;25.23;;;3.50;99.90;;;;;;4986706;28;20632;-84
2022/11/13 01:55:39;;;;;;;115.27;24.80;;;3.40;99.90;;;;;;4984064;28;20648;-85
2022/11/13 01:58:08;;;;;;;144.10;25.70;;;3.40;99.90;;;;;;4988536;28;20723;-85
2022/11/13 02:00:35;;;;;;;146.57;27.70;;;3.60;99.90;;;;;;4984841;28;20875;-86
2022/11/13 02:03:02;;;;;;;102.77;22.70;;;3.70;99.90;;;;;;4985103;28;20627;-85
2022/11/13 02:05:29;;;;;;;71.40;21.07;;;3.50;99.90;;;;;;4987561;28;20617;-85
2022/11/13 02:07:56;;;;;;;106.40;24.30;;;3.60;99.90;;;;;;4983931;28;20639;-85
2022/11/13 02:10:23;;;;;;;70.97;21.90;;;3.80;99.90;;;;;;4980490;28;20688;-85
2022/11/13 02:12:52;;;;;;;136.80;24.63;;;3.80;99.90;;;;;;4980694;28;21201;-85
2022/11/13 02:15:22;;;;;;;107.97;23.90;;;3.60;99.90;;;;;;4976062;28;20633;-86
2022/11/13 02:17:52;;;;;;;120.30;23.00;;;3.50;99.90;;;;;;4983964;28;20628;-85
2022/11/13 02:20:24;;;;;;;101.93;23.60;;;3.50;99.90;;;;;;4992907;28;20633;-85
2022/11/13 02:23:00;;;;;;;135.67;25.80;;;3.50;99.90;;;;;;4980278;28;20739;-84
2022/11/13 02:25:31;;;;;;;175.73;25.10;;;3.40;99.90;;;;;;4979882;28;20647;-85
2022/11/13 02:27:58;;;;;;;88.07;19.53;;;3.20;99.90;;;;;;4984639;28;20636;-85
2022/11/13 02:30:27;;;;;;;95.87;18.80;;;3.50;99.90;;;;;;4980709;28;20719;-85
2022/11/13 02:32:56;;;;;;;38.03;16.57;;;3.30;99.90;;;;;;4983947;28;21272;-85
2022/11/13 02:35:27;;;;;;;75.63;19.57;;;3.40;99.90;;;;;;4981182;28;20632;-85
2022/11/13 02:37:56;;;;;;;106.17;21.07;;;3.40;99.90;;;;;;4974147;28;20652;-86
2022/11/13 02:40:24;;;;;;;91.20;20.13;;;3.40;99.90;;;;;;4976180;28;20664;-84
2022/11/13 02:42:52;;;;;;;83.83;18.90;;;3.70;99.90;;;;;;4979317;28;20628;-85
2022/11/13 02:45:19;;;;;;;153.73;23.63;;;3.50;99.90;;;;;;4977546;28;20633;-85
2022/11/13 02:47:46;;;;;;;68.00;17.77;;;3.40;99.90;;;;;;4985580;28;21199;-85
2022/11/13 02:50:13;;;;;;;236.17;26.50;;;3.60;99.90;;;;;;4978314;28;20673;-85
2022/11/13 02:52:41;;;;;;;136.83;19.63;;;3.60;99.90;;;;;;4982972;28;20632;-85
2022/11/13 02:55:08;;;;;;;127.07;21.07;;;3.40;99.90;;;;;;4982801;28;20637;-84
2022/11/13 02:57:35;;;;;;;174.00;20.53;;;3.40;99.90;;;;;;4983198;28;21189;-84
2022/11/13 03:00:05;;;;;;;158.80;20.93;;;2.70;99.90;;;;;;4976430;28;21243;-85
2022/11/13 03:02:31;;;;;;;86.87;17.00;;;3.30;99.90;;;;;;4977023;28;20640;-85
2022/11/13 03:04:58;;;;;;;154.83;21.20;;;3.30;99.90;;;;;;4990319;28;20636;-84
2022/11/13 03:07:25;;;;;;;148.63;20.87;;;3.20;99.90;;;;;;4978410;28;20624;-84
2022/11/13 03:09:51;;;;;;;184.10;23.77;;;3.20;99.90;;;;;;4985213;28;20685;-84
2022/11/13 03:12:18;;;;;;;151.70;22.90;;;2.70;99.90;;;;;;4978312;28;20633;-84
2022/11/13 03:14:45;;;;;;;127.87;19.90;;;3.10;99.90;;;;;;4978980;28;20755;-84
2022/11/13 03:17:13;;;;;;;152.47;21.63;;;3.10;99.90;;;;;;4978648;28;21198;-84
2022/11/13 03:19:40;;;;;;;114.03;18.57;;;2.80;99.90;;;;;;4976837;28;20653;-84
2022/11/13 03:22:06;;;;;;;117.50;19.90;;;3.30;99.90;;;;;;4979740;28;20643;-84
2022/11/13 03:24:33;;;;;;;169.07;21.80;;;3.00;99.90;;;;;;4982512;28;20643;-85
2022/11/13 03:27:00;;;;;;;125.67;19.70;;;3.10;99.90;;;;;;4979131;28;21161;-84
2022/11/13 03:29:27;;;;;;;81.33;17.70;;;3.00;99.90;;;;;;4974025;28;20633;-85
2022/11/13 03:31:54;;;;;;;99.73;19.00;;;3.10;99.90;;;;;;4978709;28;20648;-84
2022/11/13 03:34:22;;;;;;;88.47;17.13;;;2.90;99.90;;;;;;4987732;28;20632;-84
2022/11/13 03:36:49;;;;;;;174.90;24.83;;;3.10;99.90;;;;;;4975808;28;20633;-83
2022/11/13 03:39:15;;;;;;;108.40;17.97;;;3.10;99.90;;;;;;4984518;28;20636;-84
2022/11/13 03:41:42;;;;;;;64.73;15.40;;;2.70;99.90;;;;;;4978637;28;20634;-84
2022/11/13 03:44:09;;;;;;;102.97;18.87;;;2.90;99.90;;;;;;4978728;28;20637;-84
2022/11/13 03:46:36;;;;;;;64.80;16.00;;;2.90;99.90;;;;;;4983050;28;21015;-84
2022/11/13 03:49:03;;;;;;;50.97;14.87;;;3.00;99.90;;;;;;4979041;28;21216;-84
2022/11/13 03:51:31;;;;;;;28.97;13.70;;;2.80;99.90;;;;;;4977727;28;20690;-85
2022/11/13 03:53:59;;;;;;;37.00;14.17;;;2.90;99.90;;;;;;4976761;28;20647;-85
2022/11/13 03:56:26;;;;;;;34.23;14.17;;;2.70;99.90;;;;;;4980506;28;20694;-86
2022/11/13 03:58:52;;;;;;;40.47;12.90;;;2.80;99.90;;;;;;4980483;28;20840;-86
2022/11/13 04:01:19;;;;;;;14.30;11.00;;;2.60;99.90;;;;;;4979231;28;20659;-85
2022/11/13 04:03:46;;;;;;;17.70;11.67;;;2.70;99.90;;;;;;4982860;28;20616;-85
2022/11/13 04:06:13;;;;;;;18.60;12.60;;;2.90;99.90;;;;;;4986313;28;21217;-86
2022/11/13 04:08:41;;;;;;;25.70;11.40;;;2.80;99.90;;;;;;4976886;28;20644;-85
2022/11/13 04:11:09;;;;;;;21.73;11.60;;;2.80;99.90;;;;;;4982147;28;20683;-85
2022/11/13 04:13:36;;;;;;;22.20;12.00;;;2.60;99.90;;;;;;4984821;28;20636;-84
2022/11/13 04:16:03;;;;;;;38.23;13.10;;;2.50;99.90;;;;;;4980578;28;21203;-84
2022/11/13 04:18:30;;;;;;;137.97;20.00;;;2.80;99.90;;;;;;4978990;28;21238;-84
2022/11/13 04:20:59;;;;;;;105.80;18.43;;;2.50;99.90;;;;;;4979258;28;20664;-84
2022/11/13 04:23:26;;;;;;;18.10;12.57;;;2.70;99.90;;;;;;4982018;28;20623;-84
2022/11/13 04:25:55;;;;;;;14.73;13.23;;;2.70;99.90;;;;;;4974416;28;20639;-84
2022/11/13 04:28:22;;;;;;;14.83;11.80;;;2.60;99.90;;;;;;4985877;28;20632;-84
2022/11/13 04:30:49;;;;;;;25.60;11.73;;;2.60;99.90;;;;;;4976299;28;20687;-86
2022/11/13 04:33:15;;;;;;;21.47;12.30;;;2.70;99.90;;;;;;4980872;28;20646;-84
2022/11/13 04:35:44;;;;;;;89.57;16.33;;;2.80;99.90;;;;;;4976198;28;21035;-84
2022/11/13 04:38:11;;;;;;;118.77;18.13;;;2.60;99.90;;;;;;4986373;28;20650;-84
2022/11/13 04:40:38;;;;;;;63.00;14.07;;;2.60;99.90;;;;;;4989111;28;20646;-84
2022/11/13 04:43:06;;;;;;;176.20;21.17;;;2.60;99.90;;;;;;4981200;28;20631;-84
2022/11/13 04:45:32;;;;;;;130.47;17.77;;;2.60;99.90;;;;;;4981387;28;20646;-84
2022/11/13 04:47:59;;;;;;;103.83;18.80;;;2.70;99.90;;;;;;4982183;28;20646;-84
2022/11/13 04:50:26;;;;;;;97.67;17.37;;;2.50;99.90;;;;;;4981025;28;20698;-84
2022/11/13 04:52:53;;;;;;;135.37;17.27;;;2.60;99.90;;;;;;4987262;28;20636;-84
2022/11/13 04:55:20;;;;;;;87.57;17.17;;;2.40;99.90;;;;;;4990635;28;20636;-85
2022/11/13 04:57:50;;;;;;;118.70;16.20;;;2.80;99.90;;;;;;4988693;28;21204;-85
2022/11/13 05:00:18;;;;;;;167.70;17.37;;;2.60;99.90;;;;;;4992172;28;20743;-85
2022/11/13 05:02:45;;;;;;;193.23;19.33;;;2.80;99.90;;;;;;4988403;28;20631;-84
2022/11/13 05:05:12;;;;;;;117.93;14.17;;;2.60;99.90;;;;;;4982273;28;20628;-84
2022/11/13 05:07:39;;;;;;;153.07;17.83;;;2.50;99.90;;;;;;4985084;28;20640;-84
2022/11/13 05:10:06;;;;;;;85.47;13.50;;;2.50;99.90;;;;;;4985377;28;21246;-84
2022/11/13 05:12:33;;;;;;;110.37;15.00;;;2.50;99.90;;;;;;4992459;28;20634;-84
2022/11/13 05:14:59;;;;;;;89.30;14.67;;;2.60;99.90;;;;;;4989664;28;20666;-86
2022/11/13 05:17:28;;;;;;;74.27;12.90;;;2.60;99.90;;;;;;4990732;28;21256;-84
2022/11/13 05:19:55;;;;;;;121.60;15.93;;;2.60;99.90;;;;;;4981366;28;20648;-85
2022/11/13 05:22:21;;;;;;;102.67;14.87;;;2.70;99.90;;;;;;4990251;28;20633;-84
2022/11/13 05:24:48;;;;;;;43.37;10.20;;;2.50;99.90;;;;;;4972600;28;20635;-83
2022/11/13 05:27:15;;;;;;;95.03;13.50;;;2.60;99.90;;;;;;4980474;28;20638;-84
2022/11/13 05:29:42;;;;;;;58.97;12.43;;;2.60;99.90;;;;;;4981903;28;20677;-84
2022/11/13 05:32:08;;;;;;;57.60;11.73;;;2.70;99.90;;;;;;4976465;28;20668;-86
2022/11/13 05:34:37;;;;;;;66.13;13.03;;;2.40;99.90;;;;;;4983870;28;20630;-84
2022/11/13 05:37:03;;;;;;;80.87;13.20;;;2.60;99.90;;;;;;4978833;28;20632;-84
2022/11/13 05:39:30;;;;;;;45.70;11.20;;;2.60;99.90;;;;;;4985036;28;21489;-85
2022/11/13 05:41:57;;;;;;;108.53;14.10;;;2.30;99.90;;;;;;4984863;28;20632;-84
2022/11/13 05:44:24;;;;;;;77.57;12.50;;;2.30;99.90;;;;;;4980123;28;20628;-86
2022/11/13 05:46:51;;;;;;;79.90;13.20;;;2.40;99.90;;;;;;4983583;28;21477;-85
2022/11/13 05:49:18;;;;;;;51.03;12.63;;;2.60;99.90;;;;;;4979937;28;20783;-87
2022/11/13 05:51:46;;;;;;;107.87;14.67;;;2.50;99.90;;;;;;4994722;28;20671;-84
2022/11/13 05:54:13;;;;;;;174.33;19.43;;;2.70;99.90;;;;;;4983252;28;20630;-85
2022/11/13 05:56:40;;;;;;;119.77;16.53;;;2.70;99.90;;;;;;4982017;28;20635;-85
2022/11/13 05:59:07;;;;;;;65.57;13.97;;;2.60;99.90;;;;;;4981306;28;20634;-85
2022/11/13 06:01:35;;;;;;;134.03;18.73;;;2.60;99.90;;;;;;4986895;28;21015;-85
2022/11/13 06:04:03;;;;;;;54.13;13.53;;;2.60;99.90;;;;;;4986335;28;20643;-85
2022/11/13 06:06:31;;;;;;;51.27;12.40;;;2.50;99.90;;;;;;4987360;28;20631;-85
2022/11/13 06:09:01;;;;;;;45.90;12.40;;;2.10;99.90;;;;;;4990603;28;20615;-85
2022/11/13 06:11:30;;;;;;;15.90;9.60;;;2.40;99.90;;;;;;4982686;28;20676;-86
2022/11/13 06:13:58;;;;;;;29.47;11.07;;;2.80;99.90;;;;;;4988648;28;20636;-86
2022/11/13 06:16:27;;;;;;;10.83;9.73;;;2.80;99.90;;;;;;4989369;28;20623;-85
2022/11/13 06:18:55;;;;;;;12.03;10.20;;;2.70;99.90;;;;;;4981943;28;21580;-85
2022/11/13 06:21:24;;;;;;;10.83;9.90;;;2.70;99.90;;;;;;4989002;28;20652;-86
2022/11/13 06:23:51;;;;;;;10.73;9.73;;;2.60;99.90;;;;;;4983217;28;20627;-86
2022/11/13 06:26:22;;;;;;;12.10;10.63;;;2.40;99.90;;;;;;4987263;28;20666;-85
2022/11/13 06:28:49;;;;;;;13.33;10.53;;;2.60;99.90;;;;;;4988753;28;20639;-84
2022/11/13 06:31:19;;;;;;;16.67;11.67;;;2.70;99.90;;;;;;4992619;28;20690;-84
2022/11/13 06:33:46;;;;;;;28.97;11.77;;;2.80;99.90;;;;;;4977506;28;21221;-85
2022/11/13 06:36:14;;;;;;;52.63;14.10;;;2.70;99.90;;;;;;4984058;28;20635;-85
2022/11/13 06:38:41;;;;;;;121.97;17.33;;;2.20;99.90;;;;;;4980568;28;20990;-85
2022/11/13 06:41:10;;;;;;;98.50;17.53;;;3.00;99.90;;;;;;4980163;28;20615;-85
2022/11/13 06:43:39;;;;;;;402.53;34.50;;;3.00;99.90;;;;;;4978981;28;20655;-85
2022/11/13 06:46:10;;;;;;;314.83;30.33;;;3.10;99.90;;;;;;4980179;28;20643;-84
2022/11/13 06:48:37;;;;;;;280.23;29.90;;;3.20;99.90;;;;;;4985961;28;20708;-85
2022/11/13 06:51:06;;;;;;;207.50;25.60;;;2.80;99.90;;;;;;4978549;28;20706;-84
2022/11/13 06:53:33;;;;;;;191.10;25.23;;;3.00;99.90;;;;;;4981780;28;20644;-84
2022/11/13 06:56:01;;;;;;;251.77;26.20;;;3.20;99.90;;;;;;4982623;28;20644;-85
2022/11/13 06:58:29;;;;;;;92.47;18.17;;;2.70;99.90;;;;;;4977561;28;20640;-85
2022/11/13 07:00:57;;;;;;;61.10;16.30;;;3.10;99.90;;;;;;4983078;28;20654;-85
2022/11/13 07:03:26;;;;;;;105.47;20.17;;;3.20;99.90;;;;;;4976014;28;20624;-85
2022/11/13 07:05:53;;;;;;;59.73;16.00;;;3.10;99.90;;;;;;4983823;28;20705;-85
2022/11/13 07:08:20;;;;;;;136.70;21.37;;;3.30;99.90;;;;;;4980337;28;20629;-85
2022/11/13 07:10:53;;;;;;;220.40;25.60;;;3.20;99.90;;;;;;4980340;28;20684;-85
2022/11/13 07:13:22;;;;;;;129.97;28.37;;;3.30;99.90;;;;;;4982257;28;20637;-85
2022/11/13 07:15:49;;;;;;;119.17;24.90;;;3.40;99.90;;;;;;4986358;28;20639;-85
2022/11/13 07:18:17;;;;;;;75.60;18.17;;;3.50;99.90;;;;;;4968670;28;20656;-85
2022/11/13 07:20:44;;;;;;;61.63;16.07;;;3.40;99.90;;;;;;4985860;28;20665;-85
2022/11/13 07:23:11;;;;;;;52.77;15.30;;;3.60;99.90;;;;;;4984620;28;20628;-85
2022/11/13 07:25:38;;;;;;;121.87;20.73;;;3.50;99.90;;;;;;4981986;28;20643;-85
2022/11/13 07:28:05;;;;;;;78.20;17.03;;;3.50;99.90;;;;;;4977062;28;20632;-85
2022/11/13 07:30:32;;;;;;;67.03;15.07;;;3.50;99.90;;;;;;4977753;28;21248;-84
2022/11/13 07:33:02;;;;;;;149.30;21.47;;;3.40;99.90;;;;;;4992109;28;20630;-85
2022/11/13 07:35:30;;;;;;;108.97;19.43;;;3.60;99.90;;;;;;4978045;28;20629;-85
2022/11/13 07:37:57;;;;;;;72.10;15.90;;;3.40;99.90;;;;;;4975225;28;20640;-85
2022/11/13 07:40:24;;;;;;;97.60;16.90;;;3.30;99.90;;;;;;4981935;28;20660;-84
2022/11/13 07:42:57;;;;;;;146.20;16.20;;;3.20;99.90;;;;;;4981061;28;21170;-85
2022/11/13 07:45:25;;;;;;;233.53;21.13;;;3.40;99.90;;;;;;4986353;28;20683;-84
2022/11/13 07:47:54;;;;;;;396.40;27.60;;;3.10;99.90;;;;;;4990835;28;20613;-85
2022/11/13 07:50:20;;;;;;;307.87;27.73;;;3.20;99.90;;;;;;4994955;28;20667;-85
2022/11/13 07:52:49;;;;;;;221.47;23.90;;;3.00;99.90;;;;;;4991934;28;20679;-85
2022/11/13 07:55:16;;;;;;;71.50;16.23;;;3.30;99.90;;;;;;4992416;28;20649;-85
2022/11/13 07:57:43;;;;;;;212.37;25.60;;;3.40;99.90;;;;;;4989705;28;20641;-86
2022/11/13 08:02:54;;;;;;;114.97;18.87;;;3.60;99.90;;;;;;4994341;28;20659;-85
2022/11/13 08:05:23;;;;;;;113.67;16.50;;;4.10;99.90;;;;;;4992456;28;20618;-85
2022/11/13 08:07:52;;;;;;;311.40;28.67;;;4.10;99.90;;;;;;5000335;28;20672;-87
2022/11/13 08:10:21;;;;;;;206.47;21.23;;;3.60;99.90;;;;;;5000391;28;20670;-85
2022/11/13 08:12:48;;;;;;;181.83;20.13;;;3.70;99.90;;;;;;4996273;28;20672;-85
2022/11/13 08:15:15;;;;;;;195.43;21.30;;;3.80;99.90;;;;;;4988591;28;20630;-86
2022/11/13 08:17:43;;;;;;;137.37;18.50;;;4.00;99.90;;;;;;4989457;28;20629;-85
2022/11/13 08:20:11;;;;;;;203.27;21.87;;;4.20;99.90;;;;;;4991892;28;20656;-85
2022/11/13 08:22:39;;;;;;;223.20;25.67;;;3.40;99.90;;;;;;4997285;28;20649;-85
2022/11/13 08:25:26;;;;;;;152.33;19.27;;;3.80;99.90;;;;;;4995674;28;20620;-85
2022/11/13 08:27:59;;;;;;;104.27;17.30;;;4.10;99.90;;;;;;4995293;28;20640;-85
2022/11/13 08:30:29;;;;;;;132.23;16.87;;;4.10;99.90;;;;;;5000868;28;20653;-85
2022/11/13 08:32:59;;;;;;;45.87;12.30;;;4.00;99.90;;;;;;4989846;28;21212;-85
2022/11/13 08:35:28;;;;;;;75.00;14.40;;;3.70;99.90;;;;;;4995982;28;20711;-85
2022/11/13 08:37:55;;;;;;;78.53;13.63;;;3.50;99.90;;;;;;4985746;28;20636;-85
2022/11/13 08:40:25;;;;;;;140.73;15.83;;;3.80;99.90;;;;;;4981676;28;20661;-85
2022/11/13 08:42:52;;;;;;;108.33;15.50;;;3.80;99.90;;;;;;4987705;28;20632;-85
2022/11/13 08:45:19;;;;;;;50.73;12.80;;;4.10;99.90;;;;;;4995796;28;20631;-85
2022/11/13 08:47:46;;;;;;;89.77;16.20;;;4.20;99.90;;;;;;4989819;28;20617;-85
2022/11/13 08:50:16;;;;;;;106.17;16.73;;;4.30;99.90;;;;;;5006752;28;20655;-85
2022/11/13 08:52:45;;;;;;;67.97;14.70;;;4.10;99.90;;;;;;4992310;28;20755;-85
2022/11/13 08:55:12;;;;;;;86.83;15.40;;;3.90;99.90;;;;;;4994926;28;20640;-85
2022/11/13 09:00:22;;;;;;;177.33;22.73;;;4.50;99.90;;;;;;4958738;28;20658;-85
2022/11/13 09:02:53;;;;;;;180.67;22.80;;;4.00;99.90;;;;;;4965165;28;20657;-86
2022/11/13 09:05:20;;;;;;;160.57;19.70;;;4.20;99.90;;;;;;4963371;28;20632;-86
2022/11/13 09:07:47;;;;;;;115.90;17.77;;;4.40;99.90;;;;;;4962778;28;21220;-86
2022/11/13 09:10:15;;;;;;;191.97;22.43;;;4.60;99.90;;;;;;4961374;28;21510;-85
2022/11/13 09:12:43;;;;;;;181.33;21.03;;;4.70;99.90;;;;;;4959514;28;20672;-85
2022/11/13 09:15:11;;;;;;;157.67;19.53;;;4.20;99.90;;;;;;4963923;28;20610;-85
2022/11/13 09:17:38;;;;;;;164.70;21.67;;;4.50;99.90;;;;;;4958734;28;20698;-85
2022/11/13 09:20:09;;;;;;;141.57;19.60;;;4.50;99.90;;;;;;4965470;28;21263;-84
2022/11/13 09:22:36;;;;;;;115.17;17.57;;;4.60;99.90;;;;;;4963164;28;20630;-87
2022/11/13 09:25:03;;;;;;;96.50;17.40;;;4.50;99.90;;;;;;4963482;28;21180;-85
2022/11/13 09:27:30;;;;;;;95.40;16.50;;;4.60;99.90;;;;;;4965435;28;20625;-85
2022/11/13 09:29:58;;;;;;;41.67;15.13;;;4.80;99.90;;;;;;4966056;28;20693;-85
2022/11/13 09:32:25;;;;;;;32.47;13.80;;;4.80;99.90;;;;;;4968689;28;20649;-85
2022/11/13 09:34:52;;;;;;;15.60;11.57;;;4.40;99.90;;;;;;4966931;28;20655;-86
2022/11/13 09:37:19;;;;;;;19.27;12.50;;;5.00;99.90;;;;;;4968811;28;20997;-85
2022/11/13 09:39:46;;;;;;;67.83;16.70;;;5.30;99.90;;;;;;4962315;28;20652;-85
2022/11/13 09:42:16;;;;;;;17.13;11.80;;;5.30;99.90;;;;;;4964674;28;20623;-85
2022/11/13 09:44:46;;;;;;;14.27;12.87;;;5.60;99.90;;;;;;4961198;28;20650;-85
2022/11/13 09:47:18;;;;;;;12.03;11.23;;;5.30;99.90;;;;;;4962884;28;20619;-85
2022/11/13 09:49:49;;;;;;;11.67;10.77;;;5.80;99.90;;;;;;4969512;28;21472;-86
2022/11/13 09:52:19;;;;;;;12.00;11.10;;;5.50;99.90;;;;;;4971687;28;20669;-86
2022/11/13 09:54:46;;;;;;;11.47;10.60;;;5.70;99.90;;;;;;4967226;28;20634;-86
2022/11/13 09:57:28;;;;;;;12.67;10.60;;;6.00;99.90;;;;;;4981004;28;20629;-87
2022/11/13 10:00:00;;;;;;;11.60;10.70;;;6.40;99.90;;;;;;4985368;28;21366;-84
2022/11/13 10:02:45;;;;;;;10.03;9.33;;;6.30;99.90;;;;;;4988015;28;20971;-85
2022/11/13 10:05:21;;;;;;;9.93;9.13;;;6.60;99.90;;;;;;4988325;28;20648;-85
2022/11/13 10:07:57;;;;;;;10.47;9.73;;;6.40;99.90;;;;;;4978443;28;20862;-85
2022/11/13 10:10:44;;;;;;;11.30;10.40;;;6.20;99.90;;;;;;4979439;28;20656;-85
2022/11/13 10:13:15;;;;;;;12.30;11.27;;;6.80;99.90;;;;;;4986798;28;20676;-85
2022/11/13 10:15:44;;;;;;;10.93;10.03;;;6.90;99.90;;;;;;4984986;28;21017;-86
2022/11/13 10:18:16;;;;;;;10.63;9.87;;;6.90;99.90;;;;;;4986322;28;20658;-85
2022/11/13 10:20:49;;;;;;;11.57;10.67;;;6.70;99.90;;;;;;4985977;28;20645;-86
2022/11/13 10:23:19;;;;;;;12.13;11.23;;;6.80;99.90;;;;;;4978747;28;21181;-86
2022/11/13 10:25:47;;;;;;;14.27;13.00;;;7.00;99.90;;;;;;4989652;28;20793;-87
2022/11/13 10:28:17;;;;;;;11.07;10.23;;;6.70;99.90;;;;;;4982530;28;20641;-86
2022/11/13 10:30:45;;;;;;;11.87;11.07;;;7.00;99.90;;;;;;4986168;28;20649;-86
2022/11/13 10:33:17;;;;;;;11.33;10.53;;;6.40;99.90;;;;;;4983328;28;20670;-85
2022/11/13 10:35:50;;;;;;;14.97;13.93;;;6.40;99.90;;;;;;4981632;28;20641;-86
2022/11/13 10:38:25;;;;;;;12.33;11.43;;;6.50;99.90;;;;;;4979131;28;21529;-86
2022/11/13 10:40:52;;;;;;;14.67;13.47;;;6.80;99.90;;;;;;4974703;28;20648;-86
2022/11/13 10:43:21;;;;;;;14.20;13.17;;;7.70;99.90;;;;;;4980333;28;20969;-87
2022/11/13 10:45:55;;;;;;;12.13;11.23;;;8.30;99.90;;;;;;4982184;28;20648;-86
2022/11/13 10:48:28;;;;;;;10.80;10.00;;;8.80;99.90;;;;;;4978883;28;20972;-86
2022/11/13 10:51:00;;;;;;;10.73;10.00;;;9.10;99.90;;;;;;4977847;28;21065;-86
2022/11/13 10:53:32;;;;;;;10.50;9.70;;;9.00;99.90;;;;;;4983043;28;20660;-87
2022/11/13 10:56:00;;;;;;;14.37;13.27;;;9.40;99.90;;;;;;4983389;28;20649;-87
2022/11/13 10:58:27;;;;;;;10.20;9.50;;;8.10;99.90;;;;;;4980255;28;20636;-88
2022/11/13 11:00:55;;;;;;;10.30;9.50;;;9.30;99.90;;;;;;4973989;28;20663;-88
2022/11/13 11:03:25;;;;;;;9.63;8.73;;;10.70;1.00;;;;;;4979819;28;20625;-88
2022/11/13 11:05:55;;;;;;;8.70;8.10;;;12.90;1.00;;;;;;4975543;28;20760;-87
2022/11/13 11:08:28;;;;;;;8.27;7.67;;;14.50;99.90;;;;;;4985687;28;20624;-88
2022/11/13 11:13:43;;;;;;;8.67;7.97;;;15.80;1.00;;;;;;4977638;28;20699;-89
2022/11/13 11:16:14;;;;;;;8.43;7.83;;;16.00;1.00;;;;;;4981150;28;21376;-89
2022/11/13 11:18:47;;;;;;;8.33;7.77;;;17.30;95.50;;;;;;4983990;28;20621;-86
2022/11/13 11:21:18;;;;;;;8.10;7.53;;;17.60;1.00;;;;;;4978297;28;21300;-87
2022/11/13 11:23:52;;;;;;;8.30;7.80;;;18.00;1.00;;;;;;4972703;28;20632;-86
2022/11/13 11:26:24;;;;;;;7.43;7.03;;;18.20;99.90;;;;;;4973762;28;20637;-87
2022/11/13 11:29:01;;;;;;;7.83;7.33;;;18.60;99.90;;;;;;4978394;28;20634;-87
2022/11/13 11:31:32;;;;;;;8.27;7.67;;;17.90;99.90;;;;;;4982026;28;20631;-87
2022/11/13 11:34:09;;;;;;;7.37;6.87;;;18.00;1.00;;;;;;4980355;28;20676;-87
2022/11/13 11:36:46;;;;;;;7.40;6.90;;;18.30;99.90;;;;;;4986321;28;20632;-88
2022/11/13 11:39:27;;;;;;;8.47;7.87;;;18.30;99.90;;;;;;4980230;28;20648;-88
2022/11/13 11:42:03;;;;;;;8.27;7.60;;;19.40;99.90;;;;;;4979689;28;20638;-87
2022/11/13 11:44:36;;;;;;;8.00;7.50;;;19.80;99.90;;;;;;4983945;28;20985;-88
2022/11/13 11:47:03;;;;;;;7.80;7.30;;;20.00;99.90;;;;;;4986399;28;20720;-88
2022/11/13 11:49:31;;;;;;;8.67;8.07;;;20.70;99.90;;;;;;4978755;28;20744;-89
2022/11/13 11:52:11;;;;;;;7.40;7.00;;;20.70;99.90;;;;;;4982592;28;20632;-89
2022/11/13 11:54:42;;;;;;;8.03;7.53;;;21.20;99.90;;;;;;4977690;28;20643;-88
2022/11/13 11:57:35;;;;;;;8.17;7.67;;;21.20;99.90;;;;;;4989228;28;20640;-87
2022/11/13 12:00:06;;;;;;;7.00;6.60;;;21.50;99.90;;;;;;4976385;28;20668;-88
2022/11/13 12:03:02;;;;;;;7.20;6.70;;;21.20;99.90;;;;;;4982308;28;20653;-87
2022/11/13 12:05:40;;;;;;;6.50;6.10;;;20.20;99.90;;;;;;4977831;28;20629;-89
2022/11/13 12:08:16;;;;;;;7.10;6.70;;;19.80;99.90;;;;;;4985030;28;20612;-88
2022/11/13 12:10:50;;;;;;;6.90;6.40;;;20.40;99.90;;;;;;4981218;28;20767;-88
2022/11/13 12:13:27;;;;;;;7.87;7.33;;;20.10;99.90;;;;;;4982707;28;21205;-89
2022/11/13 12:16:01;;;;;;;7.20;6.70;;;19.90;99.90;;;;;;4979675;28;20666;-88
2022/11/13 12:18:41;;;;;;;6.83;6.37;;;19.50;99.90;;;;;;4980563;28;20619;-88
2022/11/13 12:21:21;;;;;;;7.53;7.00;;;19.50;99.90;;;;;;4988069;28;20670;-88
2022/11/13 12:24:06;;;;;;;7.03;6.53;;;19.30;99.90;;;;;;4982434;28;20753;-89
2022/11/13 12:26:42;;;;;;;7.53;7.00;;;19.30;99.90;;;;;;4985729;28;20656;-88
2022/11/13 12:29:23;;;;;;;7.27;6.63;;;19.50;99.90;;;;;;4977323;28;21180;-88
2022/11/13 12:32:00;;;;;;;7.30;6.77;;;19.90;99.90;;;;;;4982594;28;20635;-88
2022/11/13 12:34:32;;;;;;;6.90;6.40;;;19.80;99.90;;;;;;4981950;28;21340;-87
2022/11/13 12:37:03;;;;;;;7.57;7.07;;;19.60;99.90;;;;;;4986757;28;20639;-88
2022/11/13 12:39:38;;;;;;;6.73;6.33;;;19.70;99.90;;;;;;4982147;28;20668;-88
2022/11/13 12:42:16;;;;;;;8.00;7.30;;;19.00;99.90;;;;;;4985477;28;20640;-86
2022/11/13 12:44:52;;;;;;;7.03;6.47;;;19.40;99.90;;;;;;4996442;28;20628;-88
2022/11/13 12:47:19;;;;;;;7.23;6.83;;;19.30;99.90;;;;;;4986897;28;20631;-87
2022/11/13 12:49:45;;;;;;;7.33;6.83;;;19.00;99.90;;;;;;4979166;28;20675;-87
2022/11/13 12:52:22;;;;;;;8.90;7.97;;;18.60;99.90;;;;;;4985917;28;21357;-87
2022/11/13 12:54:51;;;;;;;7.93;7.23;;;17.90;1.00;;;;;;4983307;28;20695;-88